Time,TemperatureF,DewpointF,PressureIn,WindDirection,WindDirectionDegrees,WindSpeedMPH,WindSpeedGustMPH,Humidity,HourlyPrecipIn,Conditions,Clouds,dailyrainin,SoftwareType,DateUTC
2013-07-04 08:53:00,66.0,47.0,30.01,West,264,0.0,0.0,51,0.00,,,0.00,,2013-07-04 13:53:00,
2013-07-04 09:02:00,66.0,47.0,30.01,West,264,0.0,0.0,51,0.00,,,0.00,,2013-07-04 14:02:00,
2013-07-04 09:11:00,66.0,47.0,30.01,West,264,0.0,0.0,51,0.00,,,0.00,,2013-07-04 14:11:00,
2013-07-04 09:22:00,68.0,48.0,30.01,WSW,247,1.0,7.0,49,0.00,,,0.00,,2013-07-04 14:22:00,
2013-07-04 09:33:00,68.0,48.0,30.01,WSW,247,1.0,7.0,49,0.00,,,0.00,,2013-07-04 14:33:00,
2013-07-04 09:43:00,68.0,48.0,30.01,WSW,247,1.0,7.0,49,0.00,,,0.00,,2013-07-04 14:43:00,
2013-07-04 09:53:00,72.0,49.0,30.02,South,178,2.0,10.0,44,0.00,,,0.00,,2013-07-04 14:53:00,
2013-07-04 10:02:00,72.0,49.0,30.02,South,178,2.0,10.0,44,0.00,,,0.00,,2013-07-04 15:02:00,
2013-07-04 10:11:00,72.0,49.0,30.02,South,178,2.0,10.0,44,0.00,,,0.00,,2013-07-04 15:11:00,
2013-07-04 10:23:00,74.0,48.0,30.02,WSW,237,3.0,11.0,40,0.00,,,0.00,,2013-07-04 15:23:00,
2013-07-04 10:33:00,74.0,48.0,30.02,WSW,237,3.0,11.0,40,0.00,,,0.00,,2013-07-04 15:33:00,
2013-07-04 10:43:00,74.0,48.0,30.02,WSW,237,3.0,11.0,40,0.00,,,0.00,,2013-07-04 15:43:00,
2013-07-04 10:52:00,76.0,48.0,30.01,WSW,253,1.0,16.0,37,0.00,,,0.00,,2013-07-04 15:52:00,
2013-07-04 11:02:00,76.0,48.0,30.01,WSW,253,1.0,16.0,37,0.00,,,0.00,,2013-07-04 16:02:00,
2013-07-04 11:11:00,76.0,48.0,30.01,WSW,253,1.0,16.0,37,0.00,,,0.00,,2013-07-04 16:11:00,
2013-07-04 11:22:00,78.0,48.0,30.03,South,176,0.0,17.0,35,0.00,,,0.00,,2013-07-04 16:22:00,
2013-07-04 11:33:00,78.0,48.0,30.03,South,176,0.0,17.0,35,0.00,,,0.00,,2013-07-04 16:33:00,
2013-07-04 11:43:00,78.0,48.0,30.03,South,176,0.0,17.0,35,0.00,,,0.00,,2013-07-04 16:43:00,
2013-07-04 11:52:00,80.0,48.0,30.03,South,175,7.0,18.0,33,0.00,,,0.00,,2013-07-04 16:52:00,
2013-07-04 12:01:00,80.0,48.0,30.03,South,175,7.0,18.0,33,0.00,,,0.00,,2013-07-04 17:01:00,
2013-07-04 12:12:00,80.0,48.0,30.03,South,175,7.0,18.0,33,0.00,,,0.00,,2013-07-04 17:12:00,
2013-07-04 12:22:00,80.0,47.0,30.02,WSW,237,8.0,21.0,31,0.00,,,0.00,,2013-07-04 17:22:00,
2013-07-04 12:33:00,80.0,47.0,30.02,WSW,237,8.0,21.0,31,0.00,,,0.00,,2013-07-04 17:33:00,
2013-07-04 12:43:00,80.0,47.0,30.02,WSW,237,8.0,21.0,31,0.00,,,0.00,,2013-07-04 17:43:00,
2013-07-04 12:53:00,82.0,47.0,30.02,SSW,212,1.0,17.0,29,0.00,,,0.00,,2013-07-04 17:53:00,
2013-07-04 13:01:00,82.0,47.0,30.02,SSW,212,1.0,17.0,29,0.00,,,0.00,,2013-07-04 18:01:00,
2013-07-04 13:11:00,82.0,47.0,30.02,SSW,212,1.0,17.0,29,0.00,,,0.00,,2013-07-04 18:11:00,
2013-07-04 13:22:00,84.0,46.0,30.01,SSE,162,6.0,17.0,27,0.00,,,0.00,,2013-07-04 18:22:00,
2013-07-04 13:33:00,84.0,46.0,30.01,SSE,162,6.0,17.0,27,0.00,,,0.00,,2013-07-04 18:33:00,
2013-07-04 13:43:00,84.0,46.0,30.01,SSE,162,6.0,17.0,27,0.00,,,0.00,,2013-07-04 18:43:00,
2013-07-04 13:52:00,86.0,48.0,29.98,West,265,1.0,19.0,27,0.00,,,0.00,,2013-07-04 18:52:00,
2013-07-04 14:01:00,86.0,48.0,29.98,West,265,1.0,19.0,27,0.00,,,0.00,,2013-07-04 19:01:00,
2013-07-04 14:12:00,86.0,48.0,29.98,West,265,1.0,19.0,27,0.00,,,0.00,,2013-07-04 19:12:00,
2013-07-04 14:22:00,88.0,49.0,29.99,NW,308,2.0,11.0,26,0.00,,,0.00,,2013-07-04 19:22:00,
2013-07-04 14:33:00,88.0,49.0,29.99,NW,308,2.0,11.0,26,0.00,,,0.00,,2013-07-04 19:33:00,
2013-07-04 14:43:00,88.0,49.0,29.99,NW,308,2.0,11.0,26,0.00,,,0.00,,2013-07-04 19:43:00,
2013-07-04 14:53:00,89.0,49.0,29.98,SSE,160,0.0,9.0,25,0.00,,,0.00,,2013-07-04 19:53:00,
2013-07-04 15:01:00,89.0,49.0,29.98,SSE,160,0.0,9.0,25,0.00,,,0.00,,2013-07-04 20:01:00,
2013-07-04 15:11:00,89.0,49.0,29.98,SSE,160,0.0,9.0,25,0.00,,,0.00,,2013-07-04 20:11:00,
2013-07-04 15:22:00,87.0,49.0,29.96,WNW,282,0.0,6.0,27,0.00,,,0.00,,2013-07-04 20:22:00,
2013-07-04 15:33:00,87.0,49.0,29.96,WNW,282,0.0,6.0,27,0.00,,,0.00,,2013-07-04 20:33:00,
2013-07-04 15:42:00,87.0,49.0,29.96,WNW,282,0.0,6.0,27,0.00,,,0.00,,2013-07-04 20:42:00,
2013-07-04 15:53:00,85.0,47.0,29.97,WSW,241,1.0,7.0,27,0.00,,,0.00,,2013-07-04 20:53:00,
2013-07-04 16:01:00,85.0,47.0,29.97,WSW,241,1.0,7.0,27,0.00,,,0.00,,2013-07-04 21:01:00,
2013-07-04 16:11:00,85.0,47.0,29.97,WSW,241,1.0,7.0,27,0.00,,,0.00,,2013-07-04 21:11:00,
2013-07-04 16:22:00,86.0,47.0,29.96,WSW,241,0.0,6.0,26,0.00,,,0.00,,2013-07-04 21:22:00,
2013-07-04 16:32:00,86.0,47.0,29.96,WSW,241,0.0,6.0,26,0.00,,,0.00,,2013-07-04 21:32:00,
2013-07-04 16:43:00,86.0,47.0,29.96,WSW,241,0.0,6.0,26,0.00,,,0.00,,2013-07-04 21:43:00,
2013-07-04 16:53:00,90.0,47.0,29.95,West,265,1.0,11.0,23,0.00,,,0.00,,2013-07-04 21:53:00,
2013-07-04 17:01:00,90.0,47.0,29.95,West,265,1.0,11.0,23,0.00,,,0.00,,2013-07-04 22:01:00,
2013-07-04 17:11:00,90.0,47.0,29.95,West,265,1.0,11.0,23,0.00,,,0.00,,2013-07-04 22:11:00,
2013-07-04 17:22:00,90.0,46.0,29.93,WNW,288,3.0,13.0,22,0.00,,,0.00,,2013-07-04 22:22:00,
2013-07-04 17:33:00,90.0,46.0,29.93,WNW,288,3.0,13.0,22,0.00,,,0.00,,2013-07-04 22:33:00,
2013-07-04 17:43:00,90.0,46.0,29.93,WNW,288,3.0,13.0,22,0.00,,,0.00,,2013-07-04 22:43:00,
2013-07-04 17:52:00,90.0,46.0,29.92,SW,215,3.0,12.0,22,0.00,,,0.00,,2013-07-04 22:52:00,
2013-07-04 18:01:00,90.0,46.0,29.92,SW,215,3.0,12.0,22,0.00,,,0.00,,2013-07-04 23:01:00,
2013-07-04 18:12:00,90.0,46.0,29.92,SW,215,3.0,12.0,22,0.00,,,0.00,,2013-07-04 23:12:00,
2013-07-04 18:23:00,88.0,48.0,29.92,SW,223,2.0,11.0,25,0.00,,,0.00,,2013-07-04 23:23:00,
2013-07-04 18:33:00,88.0,48.0,29.92,SW,223,2.0,11.0,25,0.00,,,0.00,,2013-07-04 23:33:00,
2013-07-04 18:43:00,88.0,48.0,29.92,SW,223,2.0,11.0,25,0.00,,,0.00,,2013-07-04 23:43:00,
2013-07-04 18:52:00,88.0,48.0,29.91,South,182,4.0,16.0,25,0.00,,,0.00,,2013-07-04 23:52:00,
2013-07-04 19:01:00,88.0,48.0,29.91,South,182,4.0,16.0,25,0.00,,,0.00,,2013-07-05 00:01:00,
2013-07-04 19:11:00,88.0,48.0,29.91,South,182,4.0,16.0,25,0.00,,,0.00,,2013-07-05 00:11:00,
2013-07-04 19:22:00,85.0,47.0,29.92,SSW,205,3.0,17.0,27,0.00,,,0.00,,2013-07-05 00:22:00,
2013-07-04 19:32:00,85.0,47.0,29.92,SSW,205,3.0,17.0,27,0.00,,,0.00,,2013-07-05 00:32:00,
2013-07-04 19:43:00,85.0,47.0,29.92,SSW,205,3.0,17.0,27,0.00,,,0.00,,2013-07-05 00:43:00,
2013-07-04 19:52:00,84.0,46.0,29.93,South,179,1.0,13.0,27,0.00,,,0.00,,2013-07-05 00:52:00,
2013-07-04 20:01:00,84.0,46.0,29.93,South,179,1.0,13.0,27,0.00,,,0.00,,2013-07-05 01:01:00,
2013-07-04 20:11:00,84.0,46.0,29.93,South,179,1.0,13.0,27,0.00,,,0.00,,2013-07-05 01:11:00,
2013-07-04 20:22:00,84.0,46.0,29.93,South,179,1.0,13.0,27,0.00,,,0.00,,2013-07-05 01:22:00,
2013-07-04 20:32:00,84.0,46.0,29.93,South,179,1.0,13.0,27,0.00,,,0.00,,2013-07-05 01:32:00,
2013-07-04 20:52:00,81.0,46.0,29.94,SE,140,0.0,10.0,29,0.00,,,0.00,,2013-07-05 01:52:00,
2013-07-04 21:02:00,81.0,46.0,29.94,SE,140,0.0,10.0,29,0.00,,,0.00,,2013-07-05 02:02:00,
2013-07-04 21:11:00,81.0,46.0,29.94,SE,140,0.0,10.0,29,0.00,,,0.00,,2013-07-05 02:11:00,
2013-07-04 21:21:00,81.0,46.0,29.94,SE,140,0.0,10.0,29,0.00,,,0.00,,2013-07-05 02:21:00,
2013-07-04 21:32:00,81.0,46.0,29.94,SE,140,0.0,10.0,29,0.00,,,0.00,,2013-07-05 02:32:00,
2013-07-04 21:43:00,80.0,46.0,29.94,SSE,151,0.0,6.0,30,0.00,,,0.00,,2013-07-05 02:43:00,
2013-07-04 21:52:00,80.0,46.0,29.94,SSE,151,0.0,6.0,30,0.00,,,0.00,,2013-07-05 02:52:00,
2013-07-04 22:02:00,80.0,46.0,29.94,SSE,151,0.0,6.0,30,0.00,,,0.00,,2013-07-05 03:02:00,
2013-07-04 22:11:00,80.0,46.0,29.94,SSE,151,0.0,6.0,30,0.00,,,0.00,,2013-07-05 03:11:00,
2013-07-04 22:22:00,80.0,46.0,29.94,SSE,151,0.0,6.0,30,0.00,,,0.00,,2013-07-05 03:22:00,
2013-07-04 23:53:00,74.0,47.0,29.98,SE,126,0.0,0.0,38,0.00,,,0.00,,2013-07-05 04:53:00,